Time;durP1;ratioP1;P1;durP2;ratioP2;P2;SDS_P1;SDS_P2;PMS_P1;PMS_P2;Temp;Humidity;BMP_temperature;BMP_pressure;BME280_temperature;BME280_humidity;BME280_pressure;Samples;Min_cycle;Max_cycle;Signal;HPM_P1;HPM_P2
2022/03/16 00:00:35;;;;;;;211.77;27.10;;;;;;;13.46;nan;100781.91;4897869;29;21030;-89
2022/03/16 00:03:03;;;;;;;257.87;26.70;;;;;;;13.49;nan;100785.03;4792307;29;20452;-90
2022/03/16 00:05:31;;;;;;;247.47;27.13;;;;;;;13.44;nan;100764.78;4805494;29;20458;-90
2022/03/16 00:08:01;;;;;;;258.87;28.67;;;;;;;13.49;nan;100773.22;4810475;29;20452;-90
2022/03/16 00:10:29;;;;;;;235.30;28.47;;;;;;;13.50;nan;100783.13;4824603;29;20456;-89
2022/03/16 00:12:56;;;;;;;257.00;26.80;;;;;;;13.52;nan;100794.75;4810329;29;20448;-89
2022/03/16 00:15:25;;;;;;;218.37;23.50;;;;;;;13.51;nan;100804.06;4792284;29;20937;-90
2022/03/16 00:17:53;;;;;;;225.20;26.70;;;;;;;13.50;nan;100791.38;4798583;29;20500;-90
2022/03/16 00:20:21;;;;;;;248.77;31.90;;;;;;;13.52;nan;100805.75;4815537;29;20495;-90
2022/03/16 00:22:49;;;;;;;262.50;29.93;;;;;;;13.53;nan;100801.94;4873189;29;20451;-89
2022/03/16 00:25:17;;;;;;;264.00;28.60;;;;;;;13.54;nan;100802.78;4881284;29;20461;-90
2022/03/16 00:27:45;;;;;;;271.17;29.57;;;;;;;13.52;nan;100800.25;4866143;29;20457;-90
2022/03/16 00:30:14;;;;;;;277.97;34.53;;;;;;;13.53;nan;100793.72;4883444;29;20473;-91
2022/03/16 00:32:43;;;;;;;246.13;34.13;;;;;;;13.55;nan;100805.31;4884831;29;20453;-89
2022/03/16 00:35:10;;;;;;;303.33;32.67;;;;;;;13.55;nan;100809.97;4900516;29;20457;-91
2022/03/16 00:37:41;;;;;;;286.53;32.57;;;;;;;13.55;nan;100810.81;4884276;29;20461;-89
2022/03/16 00:40:10;;;;;;;292.83;32.23;;;;;;;13.53;nan;100801.94;4899038;29;20456;-89
2022/03/16 00:42:39;;;;;;;332.80;33.40;;;;;;;13.56;nan;100796.03;4869806;29;20460;-90
2022/03/16 00:45:08;;;;;;;331.30;34.87;;;;;;;13.56;nan;100798.78;4865744;29;20829;-89
2022/03/16 00:47:36;;;;;;;303.13;36.57;;;;;;;13.59;nan;100801.09;4913289;29;21032;-89
2022/03/16 00:50:05;;;;;;;329.10;34.90;;;;;;;13.51;nan;100787.56;4900201;29;20449;-91
2022/03/16 00:52:33;;;;;;;304.17;36.33;;;;;;;13.62;nan;100806.19;4884951;29;20453;-90
2022/03/16 00:55:00;;;;;;;337.50;35.80;;;;;;;13.61;nan;100799.00;4865525;29;20454;-90
2022/03/16 00:57:28;;;;;;;339.17;35.07;;;;;;;13.63;nan;100794.13;4850757;29;20450;-91
2022/03/16 00:59:58;;;;;;;302.97;33.33;;;;;;;13.68;nan;100805.31;4859473;29;20462;-90
2022/03/16 01:02:27;;;;;;;311.57;34.80;;;;;;;13.69;nan;100798.75;4899336;29;20457;-90
2022/03/16 01:04:55;;;;;;;331.13;34.40;;;;;;;;;;4864846;29;20502;-91
2022/03/16 01:07:22;;;;;;;286.57;31.80;;;;;;;;;;4847235;29;20455;-90
2022/03/16 01:09:50;;;;;;;307.43;33.00;;;;;;;13.65;nan;100793.94;4863865;29;20450;-90
2022/03/16 01:12:17;;;;;;;350.23;39.93;;;;;;;13.67;nan;100798.13;4834184;29;20454;-90
2022/03/16 01:14:46;;;;;;;295.00;34.00;;;;;;;13.67;nan;100811.84;4831004;29;20463;-92
2022/03/16 01:17:14;;;;;;;362.00;36.50;;;;;;;13.64;nan;100815.06;4846110;29;20575;-91
2022/03/16 01:19:42;;;;;;;333.30;35.20;;;;;;;13.68;nan;100827.28;4862676;29;20992;-88
2022/03/16 01:22:10;;;;;;;320.23;35.47;;;;;;;13.66;nan;100815.66;4865833;29;20486;-88
2022/03/16 01:24:40;;;;;;;298.73;33.57;;;;;;;13.67;nan;100825.59;4877203;29;20459;-88
2022/03/16 01:27:08;;;;;;;350.80;34.57;;;;;;;13.70;nan;100816.94;4850137;29;20462;-88
2022/03/16 01:29:36;;;;;;;335.57;35.87;;;;;;;13.69;nan;100823.47;4849734;29;20462;-88
2022/03/16 01:32:08;;;;;;;334.30;35.03;;;;;;;13.73;nan;100815.66;4849710;29;20455;-89
2022/03/16 01:34:36;;;;;;;289.63;33.70;;;;;;;13.74;nan;100822.84;4864014;29;20965;-90
2022/03/16 01:37:05;;;;;;;281.53;34.13;;;;;;;13.73;nan;100819.25;4879530;29;20461;-88
2022/03/16 01:39:35;;;;;;;358.60;35.43;;;;;;;13.69;nan;100812.50;4853881;29;20461;-88
2022/03/16 01:42:03;;;;;;;321.93;36.63;;;;;;;13.71;nan;100820.53;4897093;29;20481;-88
2022/03/16 01:44:45;;;;;;;305.00;33.70;;;;;;;13.71;nan;100820.53;4877023;29;20471;-88
2022/03/16 01:47:14;;;;;;;332.67;37.17;;;;;;;13.71;nan;100818.63;4890941;29;20446;-89
2022/03/16 01:49:43;;;;;;;322.43;34.10;;;;;;;13.67;nan;100803.63;4875253;29;20454;-89
2022/03/16 01:52:20;;;;;;;282.93;32.10;;;;;;;13.68;nan;100805.31;4896803;29;20948;-89
2022/03/16 01:54:48;;;;;;;292.27;35.33;;;;;;;13.64;nan;100804.06;4868589;29;20453;-88
2022/03/16 01:57:16;;;;;;;287.93;31.80;;;;;;;13.64;nan;100805.97;4883265;29;20442;-89
2022/03/16 01:59:44;;;;;;;256.10;29.40;;;;;;;13.59;nan;100806.59;4883087;29;20461;-89
2022/03/16 02:02:13;;;;;;;298.60;34.10;;;;;;;13.54;nan;100792.66;4867944;29;20542;-89
2022/03/16 02:04:41;;;;;;;305.10;34.70;;;;;;;13.52;nan;100794.75;4898902;29;20825;-89
2022/03/16 02:07:09;;;;;;;310.97;31.37;;;;;;;13.50;nan;100796.88;4867644;29;20449;-88
2022/03/16 02:09:37;;;;;;;300.40;32.27;;;;;;;13.51;nan;100794.97;4863783;29;20451;-88
2022/03/16 02:12:09;;;;;;;258.70;31.47;;;;;;;13.40;nan;100777.25;4866879;29;20474;-88
2022/03/16 02:14:36;;;;;;;231.40;33.17;;;;;;;13.44;nan;100797.75;4882829;29;20454;-88
2022/03/16 02:17:04;;;;;;;270.10;31.73;;;;;;;13.44;nan;100790.34;4882273;29;20480;-88
2022/03/16 02:19:32;;;;;;;233.20;28.30;;;;;;;13.42;nan;100788.88;4882807;29;20454;-89
2022/03/16 02:22:03;;;;;;;283.63;33.80;;;;;;;13.42;nan;100786.97;4882236;29;20489;-89
2022/03/16 02:24:32;;;;;;;268.30;32.77;;;;;;;13.44;nan;100786.75;4882265;29;20466;-86
2022/03/16 02:27:01;;;;;;;288.17;31.20;;;;;;;13.41;nan;100779.78;4898073;29;20446;-89
2022/03/16 02:29:31;;;;;;;294.13;28.90;;;;;;;13.40;nan;100769.84;4897847;29;20452;-88
2022/03/16 02:32:00;;;;;;;288.70;29.50;;;;;;;13.41;nan;100778.94;4897215;29;21016;-88
2022/03/16 02:34:29;;;;;;;286.47;29.70;;;;;;;13.38;nan;100771.97;4897999;29;20815;-88
2022/03/16 02:36:57;;;;;;;266.13;31.30;;;;;;;13.36;nan;100781.47;4883629;29;20454;-89
2022/03/16 02:39:27;;;;;;;281.37;31.43;;;;;;;13.32;nan;100771.94;4901031;29;20534;-89
2022/03/16 02:41:55;;;;;;;267.00;29.83;;;;;;;13.36;nan;100778.72;4882608;29;20486;-89
2022/03/16 02:44:24;;;;;;;241.33;26.63;;;;;;;13.37;nan;100775.75;4882601;29;20975;-89
2022/03/16 02:46:53;;;;;;;335.03;32.00;;;;;;;13.36;nan;100767.75;4882054;29;20520;-90
2022/03/16 02:49:22;;;;;;;236.77;28.47;;;;;;;13.31;nan;100765.63;4882018;29;20819;-88
2022/03/16 02:51:51;;;;;;;255.53;28.03;;;;;;;13.33;nan;100771.75;4897847;29;20452;-88
2022/03/16 02:54:18;;;;;;;204.60;27.83;;;;;;;13.33;nan;100782.72;4882146;29;20529;-89
2022/03/16 02:56:47;;;;;;;211.73;26.57;;;;;;;13.35;nan;100804.47;4882194;29;20527;-90
2022/03/16 02:59:15;;;;;;;231.33;27.40;;;;;;;13.30;nan;100796.03;4867428;29;20809;-90
2022/03/16 03:01:43;;;;;;;182.37;26.50;;;;;;;13.33;nan;100784.63;4882097;29;20504;-88
2022/03/16 03:04:11;;;;;;;188.07;25.53;;;;;;;13.28;nan;100776.16;4866094;29;20506;-89
2022/03/16 03:06:39;;;;;;;213.13;22.27;;;;;;;13.31;nan;100787.59;4882029;29;20453;-87
2022/03/16 03:09:06;;;;;;;176.73;23.77;;;;;;;13.29;nan;100802.56;4864469;29;20474;-90
2022/03/16 03:11:34;;;;;;;192.53;23.00;;;;;;;13.31;nan;100804.06;4881842;29;20446;-88
2022/03/16 03:14:02;;;;;;;159.13;23.10;;;;;;;13.33;nan;100812.91;4881582;29;20462;-88
2022/03/16 03:16:32;;;;;;;188.93;20.70;;;;;;;13.26;nan;100806.59;4896767;29;20462;-88
2022/03/16 03:19:01;;;;;;;140.23;18.57;;;;;;;13.33;nan;100817.56;4863233;29;20454;-88
2022/03/16 03:21:29;;;;;;;138.90;18.90;;;;;;;13.27;nan;100790.97;4878380;29;20494;-88
2022/03/16 03:23:57;;;;;;;146.20;19.77;;;;;;;13.29;nan;100791.59;4895527;29;20964;-88
2022/03/16 03:26:25;;;;;;;155.63;19.73;;;;;;;13.29;nan;100786.94;4865679;29;20517;-88
2022/03/16 03:28:52;;;;;;;136.33;16.43;;;;;;;13.30;nan;100776.81;4878107;29;20451;-88
2022/03/16 03:31:21;;;;;;;127.37;16.27;;;;;;;13.32;nan;100771.94;4880064;29;20485;-88
2022/03/16 03:33:49;;;;;;;112.40;16.57;;;;;;;;;;4881892;29;20460;-88
2022/03/16 03:36:16;;;;;;;108.57;13.97;;;;;;;;;;4897771;29;20944;-88
2022/03/16 03:38:44;;;;;;;96.20;12.47;;;;;;;;;;4896674;29;20457;-88
2022/03/16 03:41:12;;;;;;;97.27;14.20;;;;;;;;;;4896940;29;20481;-89
2022/03/16 03:43:40;;;;;;;100.57;13.37;;;;;;;;;;4897185;29;20511;-88
2022/03/16 03:46:09;;;;;;;94.40;11.60;;;;;;;;;;4897314;29;20446;-88
2022/03/16 03:48:37;;;;;;;78.07;11.10;;;;;;;;;;4896905;29;20490;-89
2022/03/16 03:51:06;;;;;;;96.50;14.20;;;;;;;;;;4881727;29;20449;-88
2022/03/16 03:53:34;;;;;;;108.60;14.60;;;;;;;13.24;nan;100791.41;4896790;29;20522;-89
2022/03/16 03:56:02;;;;;;;58.97;10.70;;;;;;;13.24;nan;100792.25;4881476;29;20450;-88
2022/03/16 03:58:31;;;;;;;81.83;10.03;;;;;;;13.19;nan;100780.19;4866128;29;20453;-88
2022/03/16 04:01:00;;;;;;;79.90;10.23;;;;;;;13.25;nan;100790.34;4897862;29;20450;-88
2022/03/16 04:03:28;;;;;;;83.83;11.20;;;;;;;13.27;nan;100807.44;4881645;29;20452;-89
2022/03/16 04:05:55;;;;;;;96.40;10.60;;;;;;;13.26;nan;100819.47;4884719;29;20446;-88
2022/03/16 04:08:23;;;;;;;83.53;10.20;;;;;;;13.23;nan;100811.66;4869852;29;20457;-88
2022/03/16 04:10:51;;;;;;;104.43;11.27;;;;;;;13.22;nan;100816.31;4900245;29;20461;-88
2022/03/16 04:13:18;;;;;;;87.00;11.00;;;;;;;;;;4869449;29;20453;-87
2022/03/16 04:15:46;;;;;;;90.37;14.33;;;;;;;;;;4900208;29;20971;-88
2022/03/16 04:18:14;;;;;;;109.03;12.97;;;;;;;;;;4899692;29;20880;-88
2022/03/16 04:20:41;;;;;;;118.90;15.80;;;;;;;;;;4884957;29;20441;-89
2022/03/16 04:23:08;;;;;;;119.10;14.63;;;;;;;;;;4884549;29;20489;-88
2022/03/16 04:25:36;;;;;;;125.90;16.27;;;;;;;;;;4900248;29;20433;-88
2022/03/16 04:28:03;;;;;;;166.83;17.80;;;;;;;;;;4900198;29;20465;-88
2022/03/16 04:30:31;;;;;;;112.03;16.93;;;;;;;;;;4899991;29;20560;-89
2022/03/16 04:32:58;;;;;;;116.10;13.00;;;;;;;;;;4884389;29;20437;-88
2022/03/16 04:35:25;;;;;;;126.30;17.60;;;;;;;;;;4898933;29;20544;-88
2022/03/16 04:37:53;;;;;;;145.07;15.93;;;;;;;;;;4884410;29;20890;-89
2022/03/16 04:40:20;;;;;;;108.00;14.93;;;;;;;;;;4884184;29;20784;-89
2022/03/16 04:42:48;;;;;;;100.90;14.23;;;;;;;;;;4899409;29;20996;-89
2022/03/16 04:45:16;;;;;;;86.53;12.93;;;;;;;11.42;nan;100561.09;4883922;29;20964;-89
2022/03/16 04:47:44;;;;;;;88.90;16.70;;;;;;;13.17;nan;100859.16;4868740;29;20461;-88
2022/03/16 04:50:12;;;;;;;96.13;14.93;;;;;;;13.15;nan;100851.13;4869031;29;20453;-88
2022/03/16 04:53:07;;;;;;;98.83;14.67;;;;;;;13.12;nan;100855.09;4884259;29;20454;-89
2022/03/16 04:55:36;;;;;;;113.00;18.73;;;;;;;13.10;nan;100848.09;4898887;29;20465;-89
2022/03/16 04:58:05;;;;;;;117.77;14.77;;;;;;;13.08;nan;100847.50;4884104;29;20464;-88
2022/03/16 05:00:35;;;;;;;101.17;14.33;;;;;;;13.11;nan;100850.66;4884276;29;20460;-90
2022/03/16 05:03:04;;;;;;;80.53;12.50;;;;;;;13.11;nan;100855.28;4884473;29;20482;-89
2022/03/16 05:05:32;;;;;;;105.87;12.43;;;;;;;13.04;nan;100841.56;4865260;29;20481;-91
2022/03/16 05:08:00;;;;;;;91.23;12.50;;;;;;;13.05;nan;100854.25;4865770;29;20812;-88
2022/03/16 05:10:28;;;;;;;86.13;10.23;;;;;;;13.06;nan;100872.41;4896809;29;20536;-89
2022/03/16 05:12:55;;;;;;;68.13;10.13;;;;;;;12.99;nan;100874.25;4899172;29;20457;-87
2022/03/16 05:15:23;;;;;;;76.87;11.00;;;;;;;13.02;nan;100887.56;4898252;29;20457;-88
2022/03/16 05:17:52;;;;;;;102.17;11.17;;;;;;;12.95;nan;100872.97;4883555;29;21016;-89
2022/03/16 05:20:21;;;;;;;67.93;11.70;;;;;;;12.96;nan;100877.41;4899539;29;20505;-89
2022/03/16 05:22:51;;;;;;;60.77;11.33;;;;;;;12.91;nan;100868.94;4868707;29;20898;-89
2022/03/16 05:25:26;;;;;;;88.00;11.30;;;;;;;12.97;nan;100879.13;4865234;29;20459;-89
2022/03/16 05:27:54;;;;;;;74.17;12.17;;;;;;;12.94;nan;100882.25;4885423;29;20464;-88
2022/03/16 05:30:26;;;;;;;84.50;10.30;;;;;;;12.95;nan;100878.47;4867841;29;21007;-89
2022/03/16 05:32:56;;;;;;;80.43;10.70;;;;;;;12.92;nan;100878.88;4884820;29;20441;-88
2022/03/16 05:35:24;;;;;;;64.30;10.87;;;;;;;12.95;nan;100885.84;4882562;29;20453;-90
2022/03/16 05:37:52;;;;;;;66.03;10.20;;;;;;;12.93;nan;100897.03;4883577;29;20461;-90
2022/03/16 05:40:20;;;;;;;49.10;8.90;;;;;;;12.87;nan;100897.88;4864707;29;20463;-88
2022/03/16 05:42:48;;;;;;;63.70;9.43;;;;;;;12.87;nan;100906.09;4864981;29;20486;-90
2022/03/16 05:45:20;;;;;;;62.30;9.50;;;;;;;12.88;nan;100923.41;4865533;29;20506;-88
2022/03/16 05:47:49;;;;;;;60.47;9.23;;;;;;;12.86;nan;100915.38;4865945;29;20470;-88
2022/03/16 05:50:17;;;;;;;64.23;9.47;;;;;;;12.81;nan;100917.88;4898744;29;20461;-89
2022/03/16 05:52:46;;;;;;;58.23;8.90;;;;;;;12.79;nan;100914.50;4883303;29;20438;-88
2022/03/16 05:55:14;;;;;;;62.73;8.37;;;;;;;12.83;nan;100921.28;4882637;29;20520;-88
2022/03/16 05:57:44;;;;;;;54.97;7.00;;;;;;;12.82;nan;100911.34;4899396;29;20461;-88
2022/03/16 06:00:14;;;;;;;58.53;8.40;;;;;;;12.76;nan;100903.94;4865094;29;20511;-88
2022/03/16 06:02:44;;;;;;;50.57;8.47;;;;;;;12.79;nan;100915.34;4871485;29;20993;-89
2022/03/16 06:05:12;;;;;;;50.50;8.03;;;;;;;12.74;nan;100909.63;4890116;29;20453;-90
2022/03/16 06:07:41;;;;;;;48.93;6.97;;;;;;;12.72;nan;100902.63;4898659;29;20454;-91
2022/03/16 06:10:17;;;;;;;52.97;8.23;;;;;;;12.77;nan;100913.84;4883144;29;21000;-89
2022/03/16 06:12:51;;;;;;;61.90;9.57;;;;;;;12.77;nan;100900.13;4883115;29;20822;-88
2022/03/16 06:15:20;;;;;;;53.00;7.50;;;;;;;12.71;nan;100896.31;4898150;29;20484;-88
2022/03/16 06:17:48;;;;;;;65.43;8.70;;;;;;;12.73;nan;100898.84;4898868;29;20456;-89
2022/03/16 06:20:17;;;;;;;47.37;7.90;;;;;;;12.73;nan;100896.09;4868327;29;20462;-88
2022/03/16 06:22:44;;;;;;;65.60;8.50;;;;;;;12.73;nan;100921.63;4882886;29;20485;-90
2022/03/16 06:25:12;;;;;;;66.90;8.97;;;;;;;12.71;nan;100917.41;4867213;29;20450;-89
2022/03/16 06:27:40;;;;;;;46.17;8.63;;;;;;;12.68;nan;100917.84;4883030;29;20494;-90
2022/03/16 06:30:08;;;;;;;55.87;9.03;;;;;;;12.67;nan;100921.63;4882169;29;20485;-91
2022/03/16 06:32:37;;;;;;;65.17;8.27;;;;;;;12.66;nan;100917.19;4897636;29;20450;-88
2022/03/16 06:35:05;;;;;;;47.50;7.63;;;;;;;12.66;nan;100926.25;4882332;29;20461;-90
2022/03/16 06:37:33;;;;;;;65.07;9.20;;;;;;;12.65;nan;100926.47;4897585;29;20948;-89
2022/03/16 06:40:01;;;;;;;45.60;8.30;;;;;;;12.68;nan;100948.00;4898083;29;20462;-90
2022/03/16 06:42:29;;;;;;;36.53;7.47;;;;;;;12.66;nan;100948.19;4884482;29;20485;-90
2022/03/16 06:44:57;;;;;;;53.67;7.90;;;;;;;12.66;nan;100955.56;4897722;29;20464;-88
2022/03/16 06:47:25;;;;;;;44.70;8.00;;;;;;;12.64;nan;100957.66;4867464;29;20462;-89
2022/03/16 06:49:53;;;;;;;51.97;7.50;;;;;;;12.66;nan;100963.81;4866512;29;20513;-90
2022/03/16 06:52:21;;;;;;;63.73;8.97;;;;;;;12.60;nan;100970.94;4882401;29;20449;-88
2022/03/16 06:54:50;;;;;;;39.27;7.13;;;;;;;12.62;nan;100968.00;4866927;29;20457;-88
2022/03/16 06:57:17;;;;;;;57.33;7.23;;;;;;;12.63;nan;100986.13;4898725;29;20453;-89
2022/03/16 07:00:00;;;;;;;50.03;7.40;;;;;;;12.64;nan;100999.66;4898609;29;20882;-88
2022/03/16 07:02:28;;;;;;;51.57;8.27;;;;;;;12.64;nan;100998.81;4897489;29;20489;-88
2022/03/16 07:04:58;;;;;;;52.53;7.97;;;;;;;12.61;nan;101004.69;4895847;29;20540;-88
2022/03/16 07:07:27;;;;;;;49.83;7.33;;;;;;;12.65;nan;101012.31;4810559;29;20463;-88
2022/03/16 07:09:55;;;;;;;37.33;6.57;;;;;;;12.64;nan;101009.78;4837051;29;20585;-88
2022/03/16 07:12:31;;;;;;;70.27;10.20;;;;;;;12.62;nan;101007.22;4842688;29;20455;-88
2022/03/16 07:15:00;;;;;;;51.40;7.87;;;;;;;12.66;nan;101013.16;4859009;29;20459;-90
2022/03/16 07:17:28;;;;;;;39.93;8.40;;;;;;;12.67;nan;101023.94;4824084;29;20464;-88
2022/03/16 07:19:56;;;;;;;47.63;7.00;;;;;;;12.61;nan;101018.38;4816786;29;20464;-86
2022/03/16 07:22:24;;;;;;;46.70;8.50;;;;;;;12.66;nan;101021.38;4821128;29;20492;-88
2022/03/16 07:25:11;;;;;;;40.37;9.40;;;;;;;12.68;nan;101016.56;4858750;29;20442;-88
2022/03/16 07:27:39;;;;;;;49.43;9.97;;;;;;;12.69;nan;101023.72;4881673;29;20831;-88
2022/03/16 07:30:10;;;;;;;60.30;8.53;;;;;;;12.70;nan;101025.44;4895991;29;20502;-88
2022/03/16 07:32:41;;;;;;;54.17;7.47;;;;;;;12.73;nan;101033.22;4882187;29;20461;-90
2022/03/16 07:35:12;;;;;;;43.37;6.87;;;;;;;12.74;nan;101033.03;4838082;29;20839;-88
2022/03/16 07:37:44;;;;;;;43.67;7.17;;;;;;;12.67;nan;101031.31;4792268;29;20453;-88
2022/03/16 07:40:14;;;;;;;60.50;9.37;;;;;;;12.73;nan;101034.06;4807753;29;20856;-88
2022/03/16 07:42:50;;;;;;;42.80;7.60;;;;;;;12.70;nan;101033.66;4839088;29;20902;-88
2022/03/16 07:45:18;;;;;;;49.83;8.10;;;;;;;12.71;nan;101036.16;4809062;29;20464;-88
2022/03/16 07:47:48;;;;;;;38.73;7.00;;;;;;;12.73;nan;101041.47;4808971;29;20456;-88
2022/03/16 07:50:18;;;;;;;47.10;7.70;;;;;;;12.74;nan;101049.47;4796389;29;20801;-88
2022/03/16 07:52:47;;;;;;;42.40;7.20;;;;;;;12.73;nan;101038.72;4847415;29;20783;-88
2022/03/16 07:55:16;;;;;;;57.23;8.27;;;;;;;12.78;nan;101047.19;4893085;29;20965;-89
2022/03/16 07:57:44;;;;;;;66.80;9.57;;;;;;;12.75;nan;101042.09;4875838;29;20459;-88
2022/03/16 08:00:12;;;;;;;41.60;7.47;;;;;;;12.75;nan;101040.22;4876235;29;20485;-88
2022/03/16 08:02:43;;;;;;;66.03;7.60;;;;;;;12.84;nan;101046.41;4865096;29;20526;-88
2022/03/16 08:05:14;;;;;;;79.53;9.10;;;;;;;12.83;nan;101030.13;4895910;29;20458;-89
2022/03/16 08:07:43;;;;;;;76.97;10.80;;;;;;;12.92;nan;101038.00;4895080;29;20461;-87
2022/03/16 08:10:11;;;;;;;47.93;8.60;;;;;;;12.89;nan;101040.31;4878978;29;20528;-87
2022/03/16 08:12:39;;;;;;;62.03;8.47;;;;;;;13.05;nan;101068.28;4881141;29;20823;-87
2022/03/16 08:15:08;;;;;;;47.93;7.10;;;;;;;13.04;nan;101060.25;4881509;29;20457;-87
2022/03/16 08:17:36;;;;;;;77.47;10.53;;;;;;;13.17;nan;101065.81;4880909;29;20513;-87
2022/03/16 08:20:06;;;;;;;59.83;8.20;;;;;;;13.25;nan;101057.44;4865120;29;20465;-89
2022/03/16 08:22:36;;;;;;;52.53;7.63;;;;;;;13.39;nan;101061.06;4896906;29;20517;-90
2022/03/16 08:25:10;;;;;;;64.53;9.80;;;;;;;13.53;nan;101054.59;4881322;29;20462;-88
2022/03/16 08:27:39;;;;;;;65.40;7.90;;;;;;;13.73;nan;101061.00;4880793;29;20461;-87
2022/03/16 08:30:08;;;;;;;56.10;9.13;;;;;;;13.90;nan;101044.97;4881187;29;20509;-87
2022/03/16 08:32:36;;;;;;;50.10;7.53;;;;;;;14.13;nan;101055.56;4881132;29;20442;-88
2022/03/16 08:35:06;;;;;;;43.53;6.10;;;;;;;14.37;nan;101067.88;4862058;29;20462;-88
2022/03/16 08:37:34;;;;;;;41.23;6.33;;;;;;;14.55;nan;101059.00;4891407;29;20979;-88
2022/03/16 08:40:05;;;;;;;32.57;6.73;;;;;;;14.76;nan;101058.78;4877391;29;20474;-88
2022/03/16 08:42:34;;;;;;;48.03;7.03;;;;;;;14.91;nan;101058.53;4867544;29;20478;-91
2022/03/16 08:45:02;;;;;;;51.20;6.23;;;;;;;15.06;nan;101060.00;4877422;29;20945;-88
2022/03/16 08:47:31;;;;;;;45.40;6.97;;;;;;;15.21;nan;101060.56;4879278;29;20953;-89
2022/03/16 08:49:59;;;;;;;52.47;7.30;;;;;;;15.34;nan;101061.63;4896588;29;20453;-87
2022/03/16 08:52:27;;;;;;;50.93;6.67;;;;;;;15.33;nan;101038.75;4869088;29;20453;-86
2022/03/16 08:54:55;;;;;;;41.47;6.07;;;;;;;15.51;nan;101065.56;4883942;29;20483;-88
2022/03/16 08:57:25;;;;;;;50.60;8.70;;;;;;;15.55;nan;101072.34;4897340;29;20453;-87
2022/03/16 08:59:55;;;;;;;37.73;7.43;;;;;;;15.56;nan;101070.47;4897971;29;20481;-88
2022/03/16 09:02:23;;;;;;;41.93;8.37;;;;;;;15.57;nan;101075.75;4898417;29;20463;-87
2022/03/16 09:04:52;;;;;;;65.63;7.73;;;;;;;15.54;nan;101070.66;4868280;29;20445;-89
2022/03/16 09:07:21;;;;;;;46.63;8.27;;;;;;;15.50;nan;101078.50;4869069;29;20449;-87
2022/03/16 09:09:49;;;;;;;51.00;7.40;;;;;;;15.48;nan;101086.13;4868703;29;20461;-89
2022/03/16 09:12:18;;;;;;;80.20;10.20;;;;;;;15.46;nan;101080.00;4868600;29;20453;-88
2022/03/16 09:14:46;;;;;;;69.07;9.87;;;;;;;15.46;nan;101090.16;4884412;29;20454;-87
2022/03/16 09:17:17;;;;;;;63.90;8.80;;;;;;;15.43;nan;101090.59;4868690;29;20517;-89
2022/03/16 09:19:45;;;;;;;49.50;8.00;;;;;;;15.41;nan;101089.97;4884198;29;20444;-88
2022/03/16 09:22:13;;;;;;;78.70;9.43;;;;;;;15.41;nan;101092.72;4900164;29;20821;-89
2022/03/16 09:24:41;;;;;;;61.10;9.37;;;;;;;15.37;nan;101088.72;4868598;29;20491;-87
2022/03/16 09:27:09;;;;;;;58.67;9.53;;;;;;;15.36;nan;101087.03;4868486;29;20512;-87
2022/03/16 09:29:37;;;;;;;71.93;9.83;;;;;;;15.35;nan;101088.94;4868351;29;20446;-88
2022/03/16 09:32:09;;;;;;;80.10;9.37;;;;;;;15.38;nan;101098.69;4900163;29;20465;-89
2022/03/16 09:34:38;;;;;;;72.20;12.27;;;;;;;15.41;nan;101099.06;4883582;29;21032;-88
2022/03/16 09:37:09;;;;;;;90.57;13.00;;;;;;;15.39;nan;101095.72;4868723;29;20834;-87
2022/03/16 09:39:37;;;;;;;84.67;11.90;;;;;;;15.40;nan;101107.53;4898843;29;20457;-87
2022/03/16 09:42:06;;;;;;;88.43;12.93;;;;;;;15.39;nan;101108.63;4868140;29;20457;-87
2022/03/16 09:44:34;;;;;;;109.80;13.47;;;;;;;15.39;nan;101103.13;4845048;29;20900;-90
2022/03/16 09:47:03;;;;;;;131.10;15.30;;;;;;;15.38;nan;101107.78;4860229;29;20503;-89
2022/03/16 09:49:31;;;;;;;100.93;14.23;;;;;;;15.28;nan;101095.53;4844863;29;20515;-88
2022/03/16 09:51:59;;;;;;;117.27;13.07;;;;;;;15.34;nan;101114.78;4845268;29;20450;-88
2022/03/16 09:54:28;;;;;;;101.93;14.53;;;;;;;15.24;nan;101105.28;4845121;29;20826;-89
2022/03/16 09:56:57;;;;;;;119.97;15.33;;;;;;;15.28;nan;101125.81;4860056;29;20463;-88
2022/03/16 09:59:26;;;;;;;142.40;16.93;;;;;;;15.25;nan;101123.47;4860104;29;20483;-89
2022/03/16 10:02:07;;;;;;;159.93;18.93;;;;;;;15.23;nan;101139.38;4866281;29;20468;-88
2022/03/16 10:04:36;;;;;;;129.73;18.33;;;;;;;15.21;nan;101137.69;4869948;29;20488;-89
2022/03/16 10:07:05;;;;;;;95.00;15.07;;;;;;;15.19;nan;101128.81;4881970;29;20472;-87
2022/03/16 10:15:17;;;;;;;125.33;15.80;;;;;;;15.27;nan;101146.16;4879743;29;20457;-87
2022/03/16 10:17:59;;;;;;;129.23;14.80;;;;;;;15.24;nan;101146.56;4879688;29;20826;-89
2022/03/16 10:20:55;;;;;;;143.53;19.67;;;;;;;15.24;nan;101141.91;4864186;29;20805;-88
2022/03/16 10:23:28;;;;;;;162.20;20.00;;;;;;;15.19;nan;101145.34;4867603;29;20839;-87
2022/03/16 10:26:00;;;;;;;214.50;21.07;;;;;;;15.23;nan;101166.91;4879578;29;20517;-87
2022/03/16 10:28:29;;;;;;;206.53;25.97;;;;;;;15.25;nan;101162.03;4864070;29;20957;-88
2022/03/16 10:30:58;;;;;;;239.93;25.27;;;;;;;15.20;nan;101158.00;4863885;29;20534;-87
2022/03/16 10:33:34;;;;;;;280.77;36.17;;;;;;;15.20;nan;101146.19;4879053;29;20481;-87
2022/03/16 10:36:07;;;;;;;247.20;35.90;;;;;;;15.20;nan;101148.94;4864013;29;20458;-89
2022/03/16 10:38:37;;;;;;;255.23;32.73;;;;;;;15.18;nan;101151.06;4879367;29;20952;-89
2022/03/16 10:41:11;;;;;;;281.17;39.30;;;;;;;15.16;nan;101145.75;4879294;29;20454;-87
2022/03/16 10:46:39;;;;;;;289.63;29.77;;;;;;;15.28;nan;101139.59;4878789;29;20961;-89
2022/03/16 10:49:09;;;;;;;253.93;32.10;;;;;;;15.42;nan;101132.97;4879201;29;20470;-89
2022/03/16 10:51:38;;;;;;;260.53;29.60;;;;;;;15.45;nan;101111.34;4878867;29;20450;-87
2022/03/16 10:54:23;;;;;;;262.23;29.60;;;;;;;15.60;nan;101118.53;4865707;29;20454;-89
2022/03/16 10:56:53;;;;;;;284.17;30.53;;;;;;;15.59;nan;101095.63;4863942;29;20454;-89
2022/03/16 10:59:26;;;;;;;276.87;30.43;;;;;;;15.75;nan;101100.69;4878613;29;20799;-87
2022/03/16 11:02:05;;;;;;;241.67;27.37;;;;;;;15.87;nan;101098.91;4863819;29;20466;-89
2022/03/16 11:04:35;;;;;;;223.33;25.73;;;;;;;15.95;nan;101095.06;4863740;29;20478;-89
2022/03/16 11:07:04;;;;;;;220.07;28.90;;;;;;;16.08;nan;101083.09;4848273;29;20518;-87
2022/03/16 11:09:33;;;;;;;180.70;23.23;;;;;;;16.10;nan;101072.72;4878630;29;20499;-89
2022/03/16 11:14:56;;;;;;;213.53;25.07;;;;;;;16.26;nan;101061.13;4879053;29;20446;-89
2022/03/16 11:17:25;;;;;;;173.60;22.20;;;;;;;16.36;nan;101066.97;4863184;29;20454;-87
2022/03/16 11:19:54;;;;;;;182.00;22.40;;;;;;;16.38;nan;101051.06;4878463;29;20466;-87
2022/03/16 11:22:27;;;;;;;180.30;19.10;;;;;;;16.48;nan;101056.94;4878563;29;20506;-89
2022/03/16 11:24:59;;;;;;;182.90;21.13;;;;;;;16.55;nan;101062.38;4863485;29;20484;-87
2022/03/16 11:27:59;;;;;;;161.80;22.63;;;;;;;16.63;nan;101064.00;4879612;29;20447;-87
2022/03/16 11:30:33;;;;;;;174.33;21.90;;;;;;;16.65;nan;101064.66;4825581;29;20480;-88
2022/03/16 11:33:06;;;;;;;168.23;20.83;;;;;;;16.63;nan;101062.13;4797832;29;20445;-89
2022/03/16 11:35:50;;;;;;;140.63;19.87;;;;;;;16.57;nan;101072.13;4811454;29;20470;-89
2022/03/16 11:38:21;;;;;;;173.03;19.50;;;;;;;16.55;nan;101095.47;4799247;29;20463;-89
2022/03/16 11:40:51;;;;;;;154.60;19.23;;;;;;;16.42;nan;101088.16;4810361;29;20476;-89
2022/03/16 11:43:23;;;;;;;190.60;24.07;;;;;;;16.37;nan;101098.16;4826193;29;20488;-89
2022/03/16 11:45:57;;;;;;;180.23;20.80;;;;;;;16.28;nan;101082.97;4840774;29;20967;-90
2022/03/16 11:48:37;;;;;;;154.13;18.30;;;;;;;16.30;nan;101080.84;4840659;29;20507;-89
2022/03/16 11:51:13;;;;;;;175.83;23.90;;;;;;;16.33;nan;101088.69;4840649;29;21013;-90
2022/03/16 11:56:41;;;;;;;175.97;24.40;;;;;;;16.51;nan;101067.53;4840714;29;20463;-91
2022/03/16 11:59:18;;;;;;;144.53;22.57;;;;;;;16.59;nan;101069.97;4840723;29;20456;-91